sensor_id;sensor_type;location;lat;lon;timestamp;pressure;altitude;pressure_sealevel;temperature;humidity
40940;BME280;26666;50.156;7.700;2023-05-20T00:00:33;100928.06;;;14.13;80.51
40940;BME280;26666;50.156;7.700;2023-05-20T00:05:35;100926.94;;;14.06;81.30
40940;BME280;26666;50.156;7.700;2023-05-20T00:10:37;100930.16;;;14.09;80.50
40940;BME280;26666;50.156;7.700;2023-05-20T00:15:40;100913.66;;;14.15;80.85
40940;BME280;26666;50.156;7.700;2023-05-20T00:20:42;100918.69;;;14.09;79.95
40940;BME280;26666;50.156;7.700;2023-05-20T00:25:44;100917.69;;;14.10;80.41
40940;BME280;26666;50.156;7.700;2023-05-20T00:30:47;100910.84;;;14.07;81.60
40940;BME280;26666;50.156;7.700;2023-05-20T00:35:49;100910.56;;;14.10;82.04
40940;BME280;26666;50.156;7.700;2023-05-20T00:40:51;100905.25;;;14.20;81.25
40940;BME280;26666;50.156;7.700;2023-05-20T00:45:54;100904.41;;;14.10;79.97
40940;BME280;26666;50.156;7.700;2023-05-20T00:50:56;100897.84;;;14.14;82.59
40940;BME280;26666;50.156;7.700;2023-05-20T00:55:58;100902.31;;;14.13;80.73
40940;BME280;26666;50.156;7.700;2023-05-20T01:01:01;100890.84;;;14.13;80.96
40940;BME280;26666;50.156;7.700;2023-05-20T01:06:03;100885.53;;;14.13;81.84
40940;BME280;26666;50.156;7.700;2023-05-20T01:11:11;100877.56;;;14.23;83.61
40940;BME280;26666;50.156;7.700;2023-05-20T01:16:17;100887.66;;;14.09;81.04
40940;BME280;26666;50.156;7.700;2023-05-20T01:21:19;100877.28;;;14.16;81.52
40940;BME280;26666;50.156;7.700;2023-05-20T01:26:22;100877.28;;;14.06;81.31
40940;BME280;26666;50.156;7.700;2023-05-20T01:31:25;100879.78;;;14.17;82.81
40940;BME280;26666;50.156;7.700;2023-05-20T01:36:31;100873.66;;;14.17;83.09
40940;BME280;26666;50.156;7.700;2023-05-20T01:41:35;100878.28;;;14.15;83.01
40940;BME280;26666;50.156;7.700;2023-05-20T01:46:38;100874.75;;;14.24;84.11
40940;BME280;26666;50.156;7.700;2023-05-20T01:51:40;100870.00;;;14.18;82.06
40940;BME280;26666;50.156;7.700;2023-05-20T01:56:44;100869.16;;;14.17;83.78
40940;BME280;26666;50.156;7.700;2023-05-20T02:01:46;100870.00;;;14.18;85.93
40940;BME280;26666;50.156;7.700;2023-05-20T02:06:48;100870.00;;;14.18;83.81
40940;BME280;26666;50.156;7.700;2023-05-20T02:11:51;100862.44;;;14.23;84.11
40940;BME280;26666;50.156;7.700;2023-05-20T02:16:53;100862.03;;;14.18;83.60
40940;BME280;26666;50.156;7.700;2023-05-20T02:21:55;100854.06;;;14.18;85.36
40940;BME280;26666;50.156;7.700;2023-05-20T02:26:58;100861.06;;;14.19;85.36
40940;BME280;26666;50.156;7.700;2023-05-20T02:32:00;100854.91;;;14.28;86.85
40940;BME280;26666;50.156;7.700;2023-05-20T02:37:02;100853.78;;;14.21;86.55
40940;BME280;26666;50.156;7.700;2023-05-20T02:42:05;100858.66;;;14.16;85.80
40940;BME280;26666;50.156;7.700;2023-05-20T02:47:07;100856.16;;;14.14;88.24
40940;BME280;26666;50.156;7.700;2023-05-20T02:52:08;100850.28;;;14.20;89.05
40940;BME280;26666;50.156;7.700;2023-05-20T02:57:12;100843.16;;;14.11;88.47
40940;BME280;26666;50.156;7.700;2023-05-20T03:02:13;100845.94;;;14.19;89.63
40940;BME280;26666;50.156;7.700;2023-05-20T03:07:15;100847.66;;;14.11;88.16
40940;BME280;26666;50.156;7.700;2023-05-20T03:12:18;100849.44;;;14.10;89.57
40940;BME280;26666;50.156;7.700;2023-05-20T03:17:20;100842.03;;;14.14;90.31
40940;BME280;26666;50.156;7.700;2023-05-20T03:22:22;100845.69;;;14.13;89.26
40940;BME280;26666;50.156;7.700;2023-05-20T03:27:25;100841.47;;;14.10;87.84
40940;BME280;26666;50.156;7.700;2023-05-20T03:32:27;100836.47;;;14.07;88.64
40940;BME280;26666;50.156;7.700;2023-05-20T03:37:29;100834.50;;;13.99;88.93
40940;BME280;26666;50.156;7.700;2023-05-20T03:42:32;100837.28;;;14.08;89.92
40940;BME280;26666;50.156;7.700;2023-05-20T03:47:34;100842.59;;;14.08;91.80
40940;BME280;26666;50.156;7.700;2023-05-20T03:52:36;100830.56;;;14.13;91.46
40940;BME280;26666;50.156;7.700;2023-05-20T03:57:39;100834.50;;;14.09;90.80
40940;BME280;26666;50.156;7.700;2023-05-20T04:02:41;100831.72;;;14.01;90.22
40940;BME280;26666;50.156;7.700;2023-05-20T04:07:43;100840.91;;;14.07;91.98
40940;BME280;26666;50.156;7.700;2023-05-20T04:12:46;100840.66;;;14.00;90.56
40940;BME280;26666;50.156;7.700;2023-05-20T04:17:48;100833.81;;;14.07;91.47
40940;BME280;26666;50.156;7.700;2023-05-20T04:22:50;100837.16;;;14.09;91.25
40940;BME280;26666;50.156;7.700;2023-05-20T04:27:53;100840.06;;;14.16;91.18
40940;BME280;26666;50.156;7.700;2023-05-20T04:32:55;100836.44;;;14.17;91.44
40940;BME280;26666;50.156;7.700;2023-05-20T04:37:56;100824.94;;;14.16;92.98
40940;BME280;26666;50.156;7.700;2023-05-20T04:43:00;100814.59;;;14.23;92.99
40940;BME280;26666;50.156;7.700;2023-05-20T04:48:02;100812.63;;;14.35;91.66
40940;BME280;26666;50.156;7.700;2023-05-20T04:53:03;100810.88;;;14.44;94.04
40940;BME280;26666;50.156;7.700;2023-05-20T04:58:06;100812.59;;;14.45;91.57
40940;BME280;26666;50.156;7.700;2023-05-20T05:03:08;100810.34;;;14.50;91.02
40940;BME280;26666;50.156;7.700;2023-05-20T05:08:10;100819.97;;;14.51;89.57
40940;BME280;26666;50.156;7.700;2023-05-20T05:13:13;100824.00;;;14.55;88.50
40940;BME280;26666;50.156;7.700;2023-05-20T05:18:15;100822.63;;;14.61;89.25
40940;BME280;26666;50.156;7.700;2023-05-20T05:23:17;100811.34;;;14.76;88.69
40940;BME280;26666;50.156;7.700;2023-05-20T05:28:20;100810.88;;;14.91;85.35
40940;BME280;26666;50.156;7.700;2023-05-20T05:33:22;100813.09;;;14.95;84.63
40940;BME280;26666;50.156;7.700;2023-05-20T05:38:23;100811.38;;;15.04;84.80
40940;BME280;26666;50.156;7.700;2023-05-20T05:43:30;100819.72;;;15.09;86.28
40940;BME280;26666;50.156;7.700;2023-05-20T05:48:32;100807.16;;;15.29;82.94
40940;BME280;26666;50.156;7.700;2023-05-20T05:53:33;100809.19;;;15.71;81.94
40940;BME280;26666;50.156;7.700;2023-05-20T05:58:36;100814.22;;;15.92;81.79
40940;BME280;26666;50.156;7.700;2023-05-20T06:03:38;100813.38;;;15.56;81.43
40940;BME280;26666;50.156;7.700;2023-05-20T06:08:40;100808.88;;;15.56;81.53
40940;BME280;26666;50.156;7.700;2023-05-20T06:13:43;100795.13;;;15.61;83.53
40940;BME280;26666;50.156;7.700;2023-05-20T06:18:45;100803.03;;;15.53;82.77
40940;BME280;26666;50.156;7.700;2023-05-20T06:23:47;100802.28;;;15.61;83.71
40940;BME280;26666;50.156;7.700;2023-05-20T06:28:50;100798.00;;;15.50;81.63
40940;BME280;26666;50.156;7.700;2023-05-20T06:33:52;100802.50;;;15.49;83.62
40940;BME280;26666;50.156;7.700;2023-05-20T06:38:54;100799.31;;;15.46;83.57
40940;BME280;26666;50.156;7.700;2023-05-20T06:43:57;100780.44;;;15.57;82.86
40940;BME280;26666;50.156;7.700;2023-05-20T06:48:59;100785.00;;;16.09;81.95
40940;BME280;26666;50.156;7.700;2023-05-20T06:54:01;100782.53;;;16.42;83.28
40940;BME280;26666;50.156;7.700;2023-05-20T06:59:04;100800.22;;;16.43;79.38
40940;BME280;26666;50.156;7.700;2023-05-20T07:04:06;100780.41;;;16.53;78.23
40940;BME280;26666;50.156;7.700;2023-05-20T07:09:08;100782.00;;;16.38;80.36
40940;BME280;26666;50.156;7.700;2023-05-20T07:14:11;100784.09;;;16.87;77.69
40940;BME280;26666;50.156;7.700;2023-05-20T07:19:13;100784.94;;;16.87;79.60
40940;BME280;26666;50.156;7.700;2023-05-20T07:24:14;100773.22;;;17.47;79.45
40940;BME280;26666;50.156;7.700;2023-05-20T07:29:18;100758.84;;;17.81;76.36
40940;BME280;26666;50.156;7.700;2023-05-20T07:34:20;100760.50;;;17.66;77.02
40940;BME280;26666;50.156;7.700;2023-05-20T07:39:21;100751.47;;;17.59;75.37
40940;BME280;26666;50.156;7.700;2023-05-20T07:44:24;100755.81;;;17.10;77.71
40940;BME280;26666;50.156;7.700;2023-05-20T07:49:26;100741.56;;;16.85;81.38
40940;BME280;26666;50.156;7.700;2023-05-20T07:54:28;100751.50;;;16.75;78.04
40940;BME280;26666;50.156;7.700;2023-05-20T07:59:31;100746.50;;;16.72;78.92
40940;BME280;26666;50.156;7.700;2023-05-20T08:04:33;100742.56;;;16.50;81.98
40940;BME280;26666;50.156;7.700;2023-05-20T08:09:35;100733.41;;;16.44;81.44
40940;BME280;26666;50.156;7.700;2023-05-20T08:14:38;100724.34;;;16.37;84.50
40940;BME280;26666;50.156;7.700;2023-05-20T08:19:40;100717.94;;;16.22;84.78
40940;BME280;26666;50.156;7.700;2023-05-20T08:24:41;100717.94;;;16.22;83.78
40940;BME280;26666;50.156;7.700;2023-05-20T08:29:44;100722.59;;;16.20;86.10
40940;BME280;26666;50.156;7.700;2023-05-20T08:34:46;100714.22;;;16.14;88.74
40940;BME280;26666;50.156;7.700;2023-05-20T08:39:48;100715.91;;;16.15;90.73
40940;BME280;26666;50.156;7.700;2023-05-20T08:44:52;100708.44;;;16.19;88.60
40940;BME280;26666;50.156;7.700;2023-05-20T08:49:54;100711.09;;;16.19;90.03
40940;BME280;26666;50.156;7.700;2023-05-20T08:54:57;100705.09;;;16.17;88.46
40940;BME280;26666;50.156;7.700;2023-05-20T09:00:00;100709.53;;;16.34;88.81
40940;BME280;26666;50.156;7.700;2023-05-20T09:05:04;100712.22;;;16.43;87.82
40940;BME280;26666;50.156;7.700;2023-05-20T09:10:06;100710.81;;;16.30;88.49
40940;BME280;26666;50.156;7.700;2023-05-20T09:15:10;100711.00;;;16.29;86.92
40940;BME280;26666;50.156;7.700;2023-05-20T09:20:12;100710.75;;;16.14;89.24
40940;BME280;26666;50.156;7.700;2023-05-20T09:25:17;100707.56;;;16.10;92.58
40940;BME280;26666;50.156;7.700;2023-05-20T09:30:23;100701.28;;;16.20;92.03
40940;BME280;26666;50.156;7.700;2023-05-20T09:35:26;100719.50;;;16.32;93.53
40940;BME280;26666;50.156;7.700;2023-05-20T09:40:28;100704.13;;;16.26;93.51
40940;BME280;26666;50.156;7.700;2023-05-20T09:45:31;100715.41;;;16.46;89.10
40940;BME280;26666;50.156;7.700;2023-05-20T09:50:34;100710.78;;;16.22;92.69
40940;BME280;26666;50.156;7.700;2023-05-20T09:55:36;100706.97;;;16.25;92.40
40940;BME280;26666;50.156;7.700;2023-05-20T10:00:40;100702.66;;;16.32;92.69
40940;BME280;26666;50.156;7.700;2023-05-20T10:05:47;100705.47;;;16.30;91.88
40940;BME280;26666;50.156;7.700;2023-05-20T10:11:05;100710.13;;;16.28;91.60
40940;BME280;26666;50.156;7.700;2023-05-20T10:16:27;100723.78;;;16.25;90.73
40940;BME280;26666;50.156;7.700;2023-05-20T10:21:32;100714.34;;;16.31;89.65
40940;BME280;26666;50.156;7.700;2023-05-20T10:26:34;100695.16;;;16.35;90.83
40940;BME280;26666;50.156;7.700;2023-05-20T10:31:43;100691.09;;;16.15;95.83
40940;BME280;26666;50.156;7.700;2023-05-20T10:36:57;100685.31;;;16.28;93.49
40940;BME280;26666;50.156;7.700;2023-05-20T10:42:06;100680.13;;;16.26;96.16
40940;BME280;26666;50.156;7.700;2023-05-20T10:47:09;100691.81;;;16.25;94.45
40940;BME280;26666;50.156;7.700;2023-05-20T10:52:15;100687.16;;;16.35;92.71
40940;BME280;26666;50.156;7.700;2023-05-20T10:57:17;100676.66;;;16.34;94.80
40940;BME280;26666;50.156;7.700;2023-05-20T11:02:21;100684.00;;;16.40;95.01
40940;BME280;26666;50.156;7.700;2023-05-20T11:07:25;100683.84;;;16.33;95.71
40940;BME280;26666;50.156;7.700;2023-05-20T11:12:26;100687.16;;;16.35;93.70
40940;BME280;26666;50.156;7.700;2023-05-20T11:17:30;100678.13;;;16.28;95.17
40940;BME280;26666;50.156;7.700;2023-05-20T11:22:32;100682.63;;;16.28;94.24
40940;BME280;26666;50.156;7.700;2023-05-20T11:27:33;100678.31;;;16.27;94.36
40940;BME280;26666;50.156;7.700;2023-05-20T11:32:57;100659.47;;;16.28;94.54
40940;BME280;26666;50.156;7.700;2023-05-20T11:38:05;100659.28;;;16.22;95.30
40940;BME280;26666;50.156;7.700;2023-05-20T11:43:10;100648.19;;;16.34;95.56
40940;BME280;26666;50.156;7.700;2023-05-20T11:48:13;100639.00;;;16.29;97.94
40940;BME280;26666;50.156;7.700;2023-05-20T11:53:16;100626.72;;;16.44;95.10
40940;BME280;26666;50.156;7.700;2023-05-20T11:58:19;100629.88;;;16.48;94.44
40940;BME280;26666;50.156;7.700;2023-05-20T12:03:22;100625.31;;;16.32;100.00
40940;BME280;26666;50.156;7.700;2023-05-20T12:08:25;100610.50;;;16.29;97.70
40940;BME280;26666;50.156;7.700;2023-05-20T12:13:26;100615.81;;;16.21;96.72
40940;BME280;26666;50.156;7.700;2023-05-20T12:18:30;100600.16;;;16.26;96.07
40940;BME280;26666;50.156;7.700;2023-05-20T12:23:31;100592.72;;;16.54;91.62
40940;BME280;26666;50.156;7.700;2023-05-20T12:28:33;100599.84;;;16.38;95.86
40940;BME280;26666;50.156;7.700;2023-05-20T12:33:36;100592.88;;;16.45;95.04
40940;BME280;26666;50.156;7.700;2023-05-20T12:38:38;100588.72;;;16.42;98.58
40940;BME280;26666;50.156;7.700;2023-05-20T12:43:40;100578.50;;;16.29;98.01
40940;BME280;26666;50.156;7.700;2023-05-20T12:48:43;100592.31;;;16.25;100.00
40940;BME280;26666;50.156;7.700;2023-05-20T12:53:45;100594.00;;;16.34;97.69
40940;BME280;26666;50.156;7.700;2023-05-20T12:58:47;100582.66;;;16.24;97.79
40940;BME280;26666;50.156;7.700;2023-05-20T13:03:50;100590.34;;;16.27;96.95
40940;BME280;26666;50.156;7.700;2023-05-20T13:08:52;100584.34;;;16.41;97.55
40940;BME280;26666;50.156;7.700;2023-05-20T13:13:54;100576.53;;;16.48;97.87
40940;BME280;26666;50.156;7.700;2023-05-20T13:18:57;100571.34;;;16.38;97.16
40940;BME280;26666;50.156;7.700;2023-05-20T13:23:59;100562.19;;;16.32;98.49
40940;BME280;26666;50.156;7.700;2023-05-20T13:29:01;100553.19;;;16.42;96.71
40940;BME280;26666;50.156;7.700;2023-05-20T13:34:04;100550.19;;;16.53;94.58
40940;BME280;26666;50.156;7.700;2023-05-20T13:39:06;100566.72;;;16.48;93.28
40940;BME280;26666;50.156;7.700;2023-05-20T13:44:08;100556.72;;;16.50;94.12
40940;BME280;26666;50.156;7.700;2023-05-20T13:49:11;100560.88;;;16.53;93.60
40940;BME280;26666;50.156;7.700;2023-05-20T13:54:13;100565.19;;;16.46;92.25
40940;BME280;26666;50.156;7.700;2023-05-20T13:59:15;100550.34;;;16.35;95.14
40940;BME280;26666;50.156;7.700;2023-05-20T14:04:18;100543.19;;;16.35;95.95
40940;BME280;26666;50.156;7.700;2023-05-20T14:09:20;100541.84;;;16.48;92.95
40940;BME280;26666;50.156;7.700;2023-05-20T14:14:22;100535.22;;;16.60;91.54
40940;BME280;26666;50.156;7.700;2023-05-20T14:19:25;100533.84;;;16.40;93.96
40940;BME280;26666;50.156;7.700;2023-05-20T14:24:26;100523.19;;;16.31;93.52
40940;BME280;26666;50.156;7.700;2023-05-20T14:29:28;100525.84;;;16.48;89.12
40940;BME280;26666;50.156;7.700;2023-05-20T14:34:31;100523.84;;;16.33;93.79
40940;BME280;26666;50.156;7.700;2023-05-20T14:39:33;100516.81;;;16.24;95.76
40940;BME280;26666;50.156;7.700;2023-05-20T14:44:35;100523.84;;;16.25;95.99
40940;BME280;26666;50.156;7.700;2023-05-20T14:49:38;100511.69;;;16.31;94.55
40940;BME280;26666;50.156;7.700;2023-05-20T14:54:41;100507.19;;;16.31;95.66
40940;BME280;26666;50.156;7.700;2023-05-20T14:59:43;100509.84;;;16.23;98.19
40940;BME280;26666;50.156;7.700;2023-05-20T15:04:46;100499.84;;;16.25;94.61
40940;BME280;26666;50.156;7.700;2023-05-20T15:09:48;100498.81;;;16.18;98.03
40940;BME280;26666;50.156;7.700;2023-05-20T15:14:49;100507.84;;;16.17;98.48
40940;BME280;26666;50.156;7.700;2023-05-20T15:19:52;100524.34;;;16.29;94.83
40940;BME280;26666;50.156;7.700;2023-05-20T15:24:54;100513.66;;;16.21;96.29
40940;BME280;26666;50.156;7.700;2023-05-20T15:29:56;100508.16;;;16.14;97.02
40940;BME280;26666;50.156;7.700;2023-05-20T15:34:59;100508.50;;;16.19;97.48
40940;BME280;26666;50.156;7.700;2023-05-20T15:40:05;100519.63;;;16.14;98.76
40940;BME280;26666;50.156;7.700;2023-05-20T15:45:08;100504.97;;;16.10;98.41
40940;BME280;26666;50.156;7.700;2023-05-20T15:50:11;100500.16;;;16.14;98.05
40940;BME280;26666;50.156;7.700;2023-05-20T15:55:13;100496.31;;;16.16;97.79
40940;BME280;26666;50.156;7.700;2023-05-20T16:00:17;100505.16;;;16.17;100.00
40940;BME280;26666;50.156;7.700;2023-05-20T16:05:21;100502.66;;;16.15;97.71
40940;BME280;26666;50.156;7.700;2023-05-20T16:10:22;100495.34;;;16.17;98.70
40940;BME280;26666;50.156;7.700;2023-05-20T16:15:26;100494.97;;;16.21;98.49
40940;BME280;26666;50.156;7.700;2023-05-20T16:20:30;100506.34;;;16.31;96.07
40940;BME280;26666;50.156;7.700;2023-05-20T16:25:31;100503.84;;;16.21;97.67
40940;BME280;26666;50.156;7.700;2023-05-20T16:30:33;100499.31;;;16.13;98.01
40940;BME280;26666;50.156;7.700;2023-05-20T16:35:37;100508.00;;;16.15;99.92
40940;BME280;26666;50.156;7.700;2023-05-20T16:40:39;100500.16;;;16.22;99.07
40940;BME280;26666;50.156;7.700;2023-05-20T16:45:40;100498.66;;;16.20;98.75
40940;BME280;26666;50.156;7.700;2023-05-20T16:50:43;100508.16;;;16.14;100.00
40940;BME280;26666;50.156;7.700;2023-05-20T16:55:45;100509.47;;;16.10;100.00
40940;BME280;26666;50.156;7.700;2023-05-20T17:00:47;100506.31;;;16.14;100.00
40940;BME280;26666;50.156;7.700;2023-05-20T17:05:50;100506.00;;;16.17;99.35
40940;BME280;26666;50.156;7.700;2023-05-20T17:10:52;100505.63;;;16.12;100.00
40940;BME280;26666;50.156;7.700;2023-05-20T17:15:54;100517.50;;;16.26;98.79
40940;BME280;26666;50.156;7.700;2023-05-20T17:20:58;100522.16;;;16.16;100.00
40940;BME280;26666;50.156;7.700;2023-05-20T17:25:59;100521.16;;;16.17;100.00
40940;BME280;26666;50.156;7.700;2023-05-20T17:31:01;100532.81;;;16.16;100.00
40940;BME280;26666;50.156;7.700;2023-05-20T17:36:05;100530.31;;;16.23;97.63
40940;BME280;26666;50.156;7.700;2023-05-20T17:41:07;100531.31;;;16.13;100.00
40940;BME280;26666;50.156;7.700;2023-05-20T17:46:09;100524.97;;;16.14;100.00
40940;BME280;26666;50.156;7.700;2023-05-20T17:51:12;100520.50;;;16.15;100.00
40940;BME280;26666;50.156;7.700;2023-05-20T17:56:41;100528.81;;;16.12;100.00
40940;BME280;26666;50.156;7.700;2023-05-20T18:02:02;100528.31;;;16.16;100.00
40940;BME280;26666;50.156;7.700;2023-05-20T18:07:17;100532.44;;;16.11;100.00
40940;BME280;26666;50.156;7.700;2023-05-20T18:12:50;100539.09;;;16.07;100.00
40940;BME280;26666;50.156;7.700;2023-05-20T18:17:52;100540.28;;;16.04;100.00
40940;BME280;26666;50.156;7.700;2023-05-20T18:23:23;100540.44;;;16.03;100.00
40940;BME280;26666;50.156;7.700;2023-05-20T18:34:09;100547.09;;;15.99;100.00
40940;BME280;26666;50.156;7.700;2023-05-20T18:39:15;100547.44;;;15.95;100.00
40940;BME280;26666;50.156;7.700;2023-05-20T18:44:35;100550.41;;;15.92;100.00
40940;BME280;26666;50.156;7.700;2023-05-20T18:49:40;100561.88;;;15.93;100.00
40940;BME280;26666;50.156;7.700;2023-05-20T19:01:29;100555.56;;;15.94;100.00
40940;BME280;26666;50.156;7.700;2023-05-20T19:08:44;100551.38;;;15.91;100.00
40940;BME280;26666;50.156;7.700;2023-05-20T19:12:40;100560.69;;;15.87;100.00
40940;BME280;26666;50.156;7.700;2023-05-20T19:18:06;100551.56;;;15.90;100.00
40940;BME280;26666;50.156;7.700;2023-05-20T19:23:18;100552.06;;;15.93;100.00
40940;BME280;26666;50.156;7.700;2023-05-20T19:34:04;100565.38;;;15.93;100.00
40940;BME280;26666;50.156;7.700;2023-05-20T19:40:35;100562.22;;;15.90;100.00
40940;BME280;26666;50.156;7.700;2023-05-20T19:45:58;100567.56;;;15.90;100.00
40940;BME280;26666;50.156;7.700;2023-05-20T19:57:37;100555.72;;;15.84;100.00
40940;BME280;26666;50.156;7.700;2023-05-20T20:08:37;100557.84;;;15.81;100.00
40940;BME280;26666;50.156;7.700;2023-05-20T20:13:40;100560.50;;;15.81;100.00
40940;BME280;26666;50.156;7.700;2023-05-20T20:18:42;100552.16;;;15.75;100.00
40940;BME280;26666;50.156;7.700;2023-05-20T20:23:43;100554.97;;;15.74;100.00
40940;BME280;26666;50.156;7.700;2023-05-20T20:28:47;100554.28;;;15.72;100.00
40940;BME280;26666;50.156;7.700;2023-05-20T20:33:48;100548.28;;;15.70;100.00
40940;BME280;26666;50.156;7.700;2023-05-20T20:38:50;100554.25;;;15.64;100.00
40940;BME280;26666;50.156;7.700;2023-05-20T20:43:53;100556.06;;;15.63;100.00
40940;BME280;26666;50.156;7.700;2023-05-20T20:48:55;100555.41;;;15.61;100.00
40940;BME280;26666;50.156;7.700;2023-05-20T20:53:56;100547.72;;;15.58;100.00
40940;BME280;26666;50.156;7.700;2023-05-20T20:59:00;100542.53;;;15.56;100.00
40940;BME280;26666;50.156;7.700;2023-05-20T21:04:02;100539.69;;;15.50;100.00
40940;BME280;26666;50.156;7.700;2023-05-20T21:09:04;100538.19;;;15.47;100.00
40940;BME280;26666;50.156;7.700;2023-05-20T21:14:07;100524.50;;;15.42;100.00
40940;BME280;26666;50.156;7.700;2023-05-20T21:19:09;100526.69;;;15.47;100.00
40940;BME280;26666;50.156;7.700;2023-05-20T21:24:11;100533.50;;;15.41;100.00
40940;BME280;26666;50.156;7.700;2023-05-20T21:29:17;100529.47;;;15.37;100.00
40940;BME280;26666;50.156;7.700;2023-05-20T21:34:19;100518.66;;;15.38;100.00
40940;BME280;26666;50.156;7.700;2023-05-20T21:39:21;100513.50;;;15.37;100.00
40940;BME280;26666;50.156;7.700;2023-05-20T21:44:24;100514.50;;;15.36;100.00
40940;BME280;26666;50.156;7.700;2023-05-20T21:49:25;100506.66;;;15.34;100.00
40940;BME280;26666;50.156;7.700;2023-05-20T21:54:27;100503.19;;;15.34;100.00
40940;BME280;26666;50.156;7.700;2023-05-20T21:59:30;100503.81;;;15.28;100.00
40940;BME280;26666;50.156;7.700;2023-05-20T22:04:32;100490.16;;;15.31;100.00
40940;BME280;26666;50.156;7.700;2023-05-20T22:09:34;100508.13;;;15.29;100.00
40940;BME280;26666;50.156;7.700;2023-05-20T22:14:37;100498.66;;;15.26;100.00
40940;BME280;26666;50.156;7.700;2023-05-20T22:19:39;100495.47;;;15.23;100.00
40940;BME280;26666;50.156;7.700;2023-05-20T22:24:40;100485.63;;;15.23;100.00
40940;BME280;26666;50.156;7.700;2023-05-20T22:29:44;100486.66;;;15.22;100.00
40940;BME280;26666;50.156;7.700;2023-05-20T22:34:45;100483.94;;;15.14;100.00
40940;BME280;26666;50.156;7.700;2023-05-20T22:39:47;100470.97;;;15.19;100.00
40940;BME280;26666;50.156;7.700;2023-05-20T22:44:50;100468.16;;;15.21;100.00
40940;BME280;26666;50.156;7.700;2023-05-20T22:49:52;100452.72;;;15.24;100.00
40940;BME280;26666;50.156;7.700;2023-05-20T22:54:54;100440.38;;;15.23;100.00
40940;BME280;26666;50.156;7.700;2023-05-20T23:00:00;100444.38;;;15.19;100.00
40940;BME280;26666;50.156;7.700;2023-05-20T23:12:00;100432.75;;;15.20;100.00
40940;BME280;26666;50.156;7.700;2023-05-20T23:17:03;100434.06;;;15.16;100.00
40940;BME280;26666;50.156;7.700;2023-05-20T23:22:05;100430.72;;;15.14;100.00
40940;BME280;26666;50.156;7.700;2023-05-20T23:27:07;100419.91;;;15.15;100.00
40940;BME280;26666;50.156;7.700;2023-05-20T23:32:10;100424.53;;;15.13;100.00
40940;BME280;26666;50.156;7.700;2023-05-20T23:37:12;100426.91;;;15.16;100.00
40940;BME280;26666;50.156;7.700;2023-05-20T23:42:13;100416.22;;;15.08;100.00
40940;BME280;26666;50.156;7.700;2023-05-20T23:47:17;100413.22;;;15.11;100.00
40940;BME280;26666;50.156;7.700;2023-05-20T23:52:19;100404.25;;;15.12;100.00
40940;BME280;26666;50.156;7.700;2023-05-20T23:57:21;100398.94;;;15.12;100.00
